sensor_id;sensor_type;location;lat;lon;timestamp;P1;durP1;ratioP1;P2;durP2;ratioP2
76608;SDS011;65928;53.936;27.540;2024-01-15T00:01:06;3.92;;;2.22;;
76608;SDS011;65928;53.936;27.540;2024-01-15T00:03:32;3.85;;;2.38;;
76608;SDS011;65928;53.936;27.540;2024-01-15T00:05:57;4.18;;;2.05;;
76608;SDS011;65928;53.936;27.540;2024-01-15T00:08:23;4.47;;;2.80;;
76608;SDS011;65928;53.936;27.540;2024-01-15T00:10:48;5.00;;;2.72;;
76608;SDS011;65928;53.936;27.540;2024-01-15T00:13:14;2.30;;;1.27;;
76608;SDS011;65928;53.936;27.540;2024-01-15T00:15:39;5.50;;;3.08;;
76608;SDS011;65928;53.936;27.540;2024-01-15T00:18:05;4.65;;;2.85;;
76608;SDS011;65928;53.936;27.540;2024-01-15T00:20:30;5.65;;;2.90;;
76608;SDS011;65928;53.936;27.540;2024-01-15T00:22:56;5.28;;;3.13;;
76608;SDS011;65928;53.936;27.540;2024-01-15T00:25:21;5.45;;;2.90;;
76608;SDS011;65928;53.936;27.540;2024-01-15T00:27:47;3.58;;;2.55;;
76608;SDS011;65928;53.936;27.540;2024-01-15T00:30:12;5.30;;;2.80;;
76608;SDS011;65928;53.936;27.540;2024-01-15T00:32:38;3.13;;;2.10;;
76608;SDS011;65928;53.936;27.540;2024-01-15T00:35:04;4.88;;;3.05;;
76608;SDS011;65928;53.936;27.540;2024-01-15T00:37:29;2.95;;;1.98;;
76608;SDS011;65928;53.936;27.540;2024-01-15T00:39:55;4.55;;;2.47;;
76608;SDS011;65928;53.936;27.540;2024-01-15T00:42:20;5.40;;;2.95;;
76608;SDS011;65928;53.936;27.540;2024-01-15T00:44:46;5.95;;;3.25;;
76608;SDS011;65928;53.936;27.540;2024-01-15T00:47:11;4.25;;;2.65;;
76608;SDS011;65928;53.936;27.540;2024-01-15T00:49:37;6.95;;;3.42;;
76608;SDS011;65928;53.936;27.540;2024-01-15T00:52:02;5.45;;;3.60;;
76608;SDS011;65928;53.936;27.540;2024-01-15T00:54:28;5.82;;;3.90;;
76608;SDS011;65928;53.936;27.540;2024-01-15T00:56:53;4.57;;;2.90;;
76608;SDS011;65928;53.936;27.540;2024-01-15T00:59:20;5.90;;;3.50;;
76608;SDS011;65928;53.936;27.540;2024-01-15T01:01:45;5.35;;;2.75;;
76608;SDS011;65928;53.936;27.540;2024-01-15T01:04:11;4.93;;;2.88;;
76608;SDS011;65928;53.936;27.540;2024-01-15T01:06:37;6.07;;;3.40;;
76608;SDS011;65928;53.936;27.540;2024-01-15T01:09:03;7.28;;;3.30;;
76608;SDS011;65928;53.936;27.540;2024-01-15T01:11:28;6.97;;;3.53;;
76608;SDS011;65928;53.936;27.540;2024-01-15T01:13:54;5.00;;;3.47;;
76608;SDS011;65928;53.936;27.540;2024-01-15T01:16:21;5.32;;;3.03;;
76608;SDS011;65928;53.936;27.540;2024-01-15T01:18:47;2.90;;;1.75;;
76608;SDS011;65928;53.936;27.540;2024-01-15T01:21:12;4.38;;;2.58;;
76608;SDS011;65928;53.936;27.540;2024-01-15T01:23:37;4.95;;;3.20;;
76608;SDS011;65928;53.936;27.540;2024-01-15T01:26:03;5.65;;;2.15;;
76608;SDS011;65928;53.936;27.540;2024-01-15T01:28:28;4.60;;;2.95;;
76608;SDS011;65928;53.936;27.540;2024-01-15T01:30:54;5.40;;;3.45;;
76608;SDS011;65928;53.936;27.540;2024-01-15T01:33:19;3.30;;;2.05;;
76608;SDS011;65928;53.936;27.540;2024-01-15T01:35:45;5.90;;;3.47;;
76608;SDS011;65928;53.936;27.540;2024-01-15T01:38:11;6.72;;;3.75;;
76608;SDS011;65928;53.936;27.540;2024-01-15T01:40:37;5.65;;;3.20;;
76608;SDS011;65928;53.936;27.540;2024-01-15T01:43:03;6.25;;;2.78;;
76608;SDS011;65928;53.936;27.540;2024-01-15T01:45:30;6.07;;;3.13;;
76608;SDS011;65928;53.936;27.540;2024-01-15T01:47:55;6.53;;;3.38;;
76608;SDS011;65928;53.936;27.540;2024-01-15T01:50:21;5.07;;;3.50;;
76608;SDS011;65928;53.936;27.540;2024-01-15T01:52:46;5.30;;;3.13;;
76608;SDS011;65928;53.936;27.540;2024-01-15T01:55:12;7.30;;;3.75;;
76608;SDS011;65928;53.936;27.540;2024-01-15T01:57:37;7.15;;;3.75;;
76608;SDS011;65928;53.936;27.540;2024-01-15T02:00:03;7.43;;;3.70;;
76608;SDS011;65928;53.936;27.540;2024-01-15T02:02:30;6.88;;;3.58;;
76608;SDS011;65928;53.936;27.540;2024-01-15T02:04:56;8.15;;;4.22;;
76608;SDS011;65928;53.936;27.540;2024-01-15T02:07:22;7.63;;;3.45;;
76608;SDS011;65928;53.936;27.540;2024-01-15T02:09:48;8.25;;;4.40;;
76608;SDS011;65928;53.936;27.540;2024-01-15T02:12:14;7.60;;;4.05;;
76608;SDS011;65928;53.936;27.540;2024-01-15T02:14:40;4.53;;;2.90;;
76608;SDS011;65928;53.936;27.540;2024-01-15T02:17:06;9.88;;;4.43;;
76608;SDS011;65928;53.936;27.540;2024-01-15T02:19:31;7.68;;;4.10;;
76608;SDS011;65928;53.936;27.540;2024-01-15T02:21:57;8.55;;;4.57;;
76608;SDS011;65928;53.936;27.540;2024-01-15T02:24:22;6.75;;;4.00;;
76608;SDS011;65928;53.936;27.540;2024-01-15T02:26:48;9.68;;;4.75;;
76608;SDS011;65928;53.936;27.540;2024-01-15T02:29:14;9.55;;;4.82;;
76608;SDS011;65928;53.936;27.540;2024-01-15T02:31:40;4.88;;;2.78;;
76608;SDS011;65928;53.936;27.540;2024-01-15T02:34:05;7.18;;;3.83;;
76608;SDS011;65928;53.936;27.540;2024-01-15T02:36:31;5.28;;;4.22;;
76608;SDS011;65928;53.936;27.540;2024-01-15T02:38:56;6.97;;;4.10;;
76608;SDS011;65928;53.936;27.540;2024-01-15T02:41:21;6.53;;;3.88;;
76608;SDS011;65928;53.936;27.540;2024-01-15T02:43:47;7.93;;;4.47;;
76608;SDS011;65928;53.936;27.540;2024-01-15T02:46:12;7.47;;;4.50;;
76608;SDS011;65928;53.936;27.540;2024-01-15T02:48:38;7.30;;;4.43;;
76608;SDS011;65928;53.936;27.540;2024-01-15T02:51:03;7.72;;;4.03;;
76608;SDS011;65928;53.936;27.540;2024-01-15T02:53:29;9.40;;;4.15;;
76608;SDS011;65928;53.936;27.540;2024-01-15T02:55:54;7.97;;;4.25;;
76608;SDS011;65928;53.936;27.540;2024-01-15T02:58:20;7.45;;;3.95;;
76608;SDS011;65928;53.936;27.540;2024-01-15T03:00:46;6.40;;;4.25;;
76608;SDS011;65928;53.936;27.540;2024-01-15T03:03:12;9.02;;;4.90;;
76608;SDS011;65928;53.936;27.540;2024-01-15T03:05:37;13.48;;;5.38;;
76608;SDS011;65928;53.936;27.540;2024-01-15T03:08:03;9.85;;;5.45;;
76608;SDS011;65928;53.936;27.540;2024-01-15T03:10:28;11.68;;;5.72;;
76608;SDS011;65928;53.936;27.540;2024-01-15T03:12:54;9.07;;;5.38;;
76608;SDS011;65928;53.936;27.540;2024-01-15T03:15:19;7.22;;;4.47;;
76608;SDS011;65928;53.936;27.540;2024-01-15T03:17:45;8.85;;;5.05;;
76608;SDS011;65928;53.936;27.540;2024-01-15T03:20:10;7.43;;;4.32;;
76608;SDS011;65928;53.936;27.540;2024-01-15T03:22:36;6.20;;;3.65;;
76608;SDS011;65928;53.936;27.540;2024-01-15T03:25:01;7.97;;;5.03;;
76608;SDS011;65928;53.936;27.540;2024-01-15T03:27:27;11.00;;;5.40;;
76608;SDS011;65928;53.936;27.540;2024-01-15T03:29:53;6.35;;;4.20;;
76608;SDS011;65928;53.936;27.540;2024-01-15T03:32:18;8.45;;;4.45;;
76608;SDS011;65928;53.936;27.540;2024-01-15T03:34:44;9.38;;;4.55;;
76608;SDS011;65928;53.936;27.540;2024-01-15T03:37:11;6.20;;;3.88;;
76608;SDS011;65928;53.936;27.540;2024-01-15T03:39:36;7.50;;;4.53;;
76608;SDS011;65928;53.936;27.540;2024-01-15T03:42:01;4.47;;;2.50;;
76608;SDS011;65928;53.936;27.540;2024-01-15T03:44:27;5.80;;;3.75;;
76608;SDS011;65928;53.936;27.540;2024-01-15T03:46:52;7.10;;;3.08;;
76608;SDS011;65928;53.936;27.540;2024-01-15T03:49:18;7.78;;;4.00;;
76608;SDS011;65928;53.936;27.540;2024-01-15T03:51:44;7.82;;;4.05;;
76608;SDS011;65928;53.936;27.540;2024-01-15T03:54:10;6.93;;;3.80;;
76608;SDS011;65928;53.936;27.540;2024-01-15T03:56:35;8.13;;;4.28;;
76608;SDS011;65928;53.936;27.540;2024-01-15T03:59:00;9.63;;;4.28;;
76608;SDS011;65928;53.936;27.540;2024-01-15T04:01:26;6.55;;;4.53;;
76608;SDS011;65928;53.936;27.540;2024-01-15T04:03:51;6.80;;;3.88;;
76608;SDS011;65928;53.936;27.540;2024-01-15T04:06:17;5.72;;;3.20;;
76608;SDS011;65928;53.936;27.540;2024-01-15T04:08:42;5.57;;;2.90;;
76608;SDS011;65928;53.936;27.540;2024-01-15T04:11:08;6.35;;;3.30;;
76608;SDS011;65928;53.936;27.540;2024-01-15T04:13:33;9.52;;;4.55;;
76608;SDS011;65928;53.936;27.540;2024-01-15T04:15:59;7.45;;;3.38;;
76608;SDS011;65928;53.936;27.540;2024-01-15T04:18:25;7.32;;;3.88;;
76608;SDS011;65928;53.936;27.540;2024-01-15T04:20:51;6.75;;;3.78;;
76608;SDS011;65928;53.936;27.540;2024-01-15T04:23:16;8.50;;;4.00;;
76608;SDS011;65928;53.936;27.540;2024-01-15T04:25:42;8.55;;;5.13;;
76608;SDS011;65928;53.936;27.540;2024-01-15T04:28:11;8.40;;;5.63;;
76608;SDS011;65928;53.936;27.540;2024-01-15T04:30:36;9.82;;;5.50;;
76608;SDS011;65928;53.936;27.540;2024-01-15T04:33:02;7.65;;;4.47;;
76608;SDS011;65928;53.936;27.540;2024-01-15T04:35:27;7.88;;;4.60;;
76608;SDS011;65928;53.936;27.540;2024-01-15T04:37:53;10.25;;;4.60;;
76608;SDS011;65928;53.936;27.540;2024-01-15T04:40:18;7.20;;;4.43;;
76608;SDS011;65928;53.936;27.540;2024-01-15T04:42:44;13.18;;;6.13;;
76608;SDS011;65928;53.936;27.540;2024-01-15T04:45:11;9.55;;;6.45;;
76608;SDS011;65928;53.936;27.540;2024-01-15T04:47:36;12.35;;;5.88;;
76608;SDS011;65928;53.936;27.540;2024-01-15T04:50:03;9.70;;;5.63;;
76608;SDS011;65928;53.936;27.540;2024-01-15T04:52:29;11.27;;;5.82;;
76608;SDS011;65928;53.936;27.540;2024-01-15T04:54:54;10.27;;;5.65;;
76608;SDS011;65928;53.936;27.540;2024-01-15T04:57:20;13.60;;;5.53;;
76608;SDS011;65928;53.936;27.540;2024-01-15T04:59:45;8.50;;;5.60;;
76608;SDS011;65928;53.936;27.540;2024-01-15T05:02:11;9.23;;;5.45;;
76608;SDS011;65928;53.936;27.540;2024-01-15T05:04:36;10.60;;;5.80;;
76608;SDS011;65928;53.936;27.540;2024-01-15T05:07:01;9.20;;;4.93;;
76608;SDS011;65928;53.936;27.540;2024-01-15T05:09:27;8.13;;;4.80;;
76608;SDS011;65928;53.936;27.540;2024-01-15T05:11:53;9.30;;;5.10;;
76608;SDS011;65928;53.936;27.540;2024-01-15T05:14:19;9.38;;;5.45;;
76608;SDS011;65928;53.936;27.540;2024-01-15T05:16:48;9.57;;;5.63;;
76608;SDS011;65928;53.936;27.540;2024-01-15T05:19:14;16.58;;;7.88;;
76608;SDS011;65928;53.936;27.540;2024-01-15T05:21:39;13.43;;;6.70;;
76608;SDS011;65928;53.936;27.540;2024-01-15T05:24:05;14.10;;;7.07;;
76608;SDS011;65928;53.936;27.540;2024-01-15T05:26:30;7.53;;;4.90;;
76608;SDS011;65928;53.936;27.540;2024-01-15T05:28:56;14.45;;;6.93;;
76608;SDS011;65928;53.936;27.540;2024-01-15T05:31:22;8.57;;;4.90;;
76608;SDS011;65928;53.936;27.540;2024-01-15T05:33:48;9.27;;;6.00;;
76608;SDS011;65928;53.936;27.540;2024-01-15T05:36:13;10.88;;;6.30;;
76608;SDS011;65928;53.936;27.540;2024-01-15T05:38:38;11.02;;;7.60;;
76608;SDS011;65928;53.936;27.540;2024-01-15T05:41:04;11.93;;;6.95;;
76608;SDS011;65928;53.936;27.540;2024-01-15T05:43:30;15.88;;;7.40;;
76608;SDS011;65928;53.936;27.540;2024-01-15T05:45:55;14.02;;;7.05;;
76608;SDS011;65928;53.936;27.540;2024-01-15T05:48:21;10.02;;;6.05;;
76608;SDS011;65928;53.936;27.540;2024-01-15T05:50:46;19.25;;;8.25;;
76608;SDS011;65928;53.936;27.540;2024-01-15T05:53:12;14.38;;;8.57;;
76608;SDS011;65928;53.936;27.540;2024-01-15T05:55:37;8.60;;;4.78;;
76608;SDS011;65928;53.936;27.540;2024-01-15T05:58:03;16.33;;;8.82;;
76608;SDS011;65928;53.936;27.540;2024-01-15T06:00:29;17.30;;;8.35;;
76608;SDS011;65928;53.936;27.540;2024-01-15T06:02:55;16.10;;;8.68;;
76608;SDS011;65928;53.936;27.540;2024-01-15T06:05:20;13.02;;;7.85;;
76608;SDS011;65928;53.936;27.540;2024-01-15T06:07:45;12.55;;;8.07;;
76608;SDS011;65928;53.936;27.540;2024-01-15T06:10:11;19.15;;;7.78;;
76608;SDS011;65928;53.936;27.540;2024-01-15T06:12:36;11.63;;;7.82;;
76608;SDS011;65928;53.936;27.540;2024-01-15T06:15:02;17.20;;;9.00;;
76608;SDS011;65928;53.936;27.540;2024-01-15T06:17:27;14.55;;;8.18;;
76608;SDS011;65928;53.936;27.540;2024-01-15T06:19:53;17.25;;;9.25;;
76608;SDS011;65928;53.936;27.540;2024-01-15T06:22:18;13.45;;;8.30;;
76608;SDS011;65928;53.936;27.540;2024-01-15T06:24:44;20.85;;;8.48;;
76608;SDS011;65928;53.936;27.540;2024-01-15T06:27:09;16.55;;;9.75;;
76608;SDS011;65928;53.936;27.540;2024-01-15T06:29:37;14.38;;;9.07;;
76608;SDS011;65928;53.936;27.540;2024-01-15T06:32:03;16.42;;;9.60;;
76608;SDS011;65928;53.936;27.540;2024-01-15T06:34:29;17.27;;;9.38;;
76608;SDS011;65928;53.936;27.540;2024-01-15T06:36:54;14.60;;;9.02;;
76608;SDS011;65928;53.936;27.540;2024-01-15T06:39:20;15.18;;;9.40;;
76608;SDS011;65928;53.936;27.540;2024-01-15T06:41:45;14.55;;;7.70;;
76608;SDS011;65928;53.936;27.540;2024-01-15T06:44:11;16.15;;;9.82;;
76608;SDS011;65928;53.936;27.540;2024-01-15T06:46:36;11.80;;;7.57;;
76608;SDS011;65928;53.936;27.540;2024-01-15T06:49:04;16.23;;;8.88;;
76608;SDS011;65928;53.936;27.540;2024-01-15T06:51:29;14.95;;;8.48;;
76608;SDS011;65928;53.936;27.540;2024-01-15T06:53:55;17.08;;;8.77;;
76608;SDS011;65928;53.936;27.540;2024-01-15T06:56:20;16.25;;;8.60;;
76608;SDS011;65928;53.936;27.540;2024-01-15T06:58:45;15.15;;;9.45;;
76608;SDS011;65928;53.936;27.540;2024-01-15T07:01:11;12.95;;;7.82;;
76608;SDS011;65928;53.936;27.540;2024-01-15T07:03:37;13.52;;;8.43;;
76608;SDS011;65928;53.936;27.540;2024-01-15T07:06:03;13.38;;;8.77;;
76608;SDS011;65928;53.936;27.540;2024-01-15T07:08:29;13.77;;;8.48;;
76608;SDS011;65928;53.936;27.540;2024-01-15T07:10:55;14.05;;;9.30;;
76608;SDS011;65928;53.936;27.540;2024-01-15T07:13:20;14.60;;;8.48;;
76608;SDS011;65928;53.936;27.540;2024-01-15T07:15:46;14.65;;;8.35;;
76608;SDS011;65928;53.936;27.540;2024-01-15T07:18:11;10.00;;;5.90;;
76608;SDS011;65928;53.936;27.540;2024-01-15T07:20:36;15.48;;;8.35;;
76608;SDS011;65928;53.936;27.540;2024-01-15T07:23:02;14.60;;;8.25;;
76608;SDS011;65928;53.936;27.540;2024-01-15T07:25:29;13.50;;;7.97;;
76608;SDS011;65928;53.936;27.540;2024-01-15T07:27:54;13.43;;;8.38;;
76608;SDS011;65928;53.936;27.540;2024-01-15T07:30:20;14.90;;;8.63;;
76608;SDS011;65928;53.936;27.540;2024-01-15T07:32:47;15.95;;;9.18;;
76608;SDS011;65928;53.936;27.540;2024-01-15T07:35:13;15.63;;;9.13;;
76608;SDS011;65928;53.936;27.540;2024-01-15T07:37:40;13.27;;;8.23;;
76608;SDS011;65928;53.936;27.540;2024-01-15T07:40:06;13.00;;;7.43;;
76608;SDS011;65928;53.936;27.540;2024-01-15T07:42:34;11.30;;;7.32;;
76608;SDS011;65928;53.936;27.540;2024-01-15T07:44:59;14.48;;;9.30;;
76608;SDS011;65928;53.936;27.540;2024-01-15T07:47:25;14.30;;;7.57;;
76608;SDS011;65928;53.936;27.540;2024-01-15T07:49:51;15.20;;;8.98;;
76608;SDS011;65928;53.936;27.540;2024-01-15T07:52:16;14.07;;;8.73;;
76608;SDS011;65928;53.936;27.540;2024-01-15T07:54:42;15.43;;;8.60;;
76608;SDS011;65928;53.936;27.540;2024-01-15T07:57:07;15.32;;;9.95;;
76608;SDS011;65928;53.936;27.540;2024-01-15T07:59:33;13.45;;;8.13;;
76608;SDS011;65928;53.936;27.540;2024-01-15T08:02:00;14.20;;;9.68;;
76608;SDS011;65928;53.936;27.540;2024-01-15T08:04:25;14.77;;;9.10;;
76608;SDS011;65928;53.936;27.540;2024-01-15T08:06:50;14.32;;;9.02;;
76608;SDS011;65928;53.936;27.540;2024-01-15T08:09:16;13.77;;;8.65;;
76608;SDS011;65928;53.936;27.540;2024-01-15T08:11:42;11.93;;;8.35;;
76608;SDS011;65928;53.936;27.540;2024-01-15T08:14:08;15.57;;;10.25;;
76608;SDS011;65928;53.936;27.540;2024-01-15T08:16:34;13.45;;;9.10;;
76608;SDS011;65928;53.936;27.540;2024-01-15T08:19:00;13.32;;;9.50;;
76608;SDS011;65928;53.936;27.540;2024-01-15T08:21:25;9.15;;;6.65;;
76608;SDS011;65928;53.936;27.540;2024-01-15T08:23:53;15.75;;;9.75;;
76608;SDS011;65928;53.936;27.540;2024-01-15T08:26:18;14.48;;;7.90;;
76608;SDS011;65928;53.936;27.540;2024-01-15T08:28:44;15.38;;;8.77;;
76608;SDS011;65928;53.936;27.540;2024-01-15T08:31:09;14.55;;;9.43;;
76608;SDS011;65928;53.936;27.540;2024-01-15T08:33:35;13.60;;;9.27;;
76608;SDS011;65928;53.936;27.540;2024-01-15T08:36:01;12.93;;;8.52;;
76608;SDS011;65928;53.936;27.540;2024-01-15T08:38:26;14.30;;;9.23;;
76608;SDS011;65928;53.936;27.540;2024-01-15T08:40:51;12.80;;;8.07;;
76608;SDS011;65928;53.936;27.540;2024-01-15T08:43:18;15.43;;;9.35;;
76608;SDS011;65928;53.936;27.540;2024-01-15T08:45:43;15.07;;;9.93;;
76608;SDS011;65928;53.936;27.540;2024-01-15T08:48:10;10.55;;;8.13;;
76608;SDS011;65928;53.936;27.540;2024-01-15T08:50:37;11.07;;;8.65;;
76608;SDS011;65928;53.936;27.540;2024-01-15T08:53:02;14.30;;;9.05;;
76608;SDS011;65928;53.936;27.540;2024-01-15T08:55:28;10.85;;;7.85;;
76608;SDS011;65928;53.936;27.540;2024-01-15T08:57:54;13.88;;;8.60;;
76608;SDS011;65928;53.936;27.540;2024-01-15T09:00:19;14.48;;;8.85;;
76608;SDS011;65928;53.936;27.540;2024-01-15T09:02:44;13.13;;;8.75;;
76608;SDS011;65928;53.936;27.540;2024-01-15T09:05:10;10.45;;;7.85;;
76608;SDS011;65928;53.936;27.540;2024-01-15T09:07:35;17.00;;;8.55;;
76608;SDS011;65928;53.936;27.540;2024-01-15T09:10:00;13.23;;;8.77;;
76608;SDS011;65928;53.936;27.540;2024-01-15T09:12:26;12.82;;;9.38;;
76608;SDS011;65928;53.936;27.540;2024-01-15T09:14:52;12.90;;;9.02;;
76608;SDS011;65928;53.936;27.540;2024-01-15T09:17:18;7.60;;;5.43;;
76608;SDS011;65928;53.936;27.540;2024-01-15T09:19:48;14.38;;;9.18;;
76608;SDS011;65928;53.936;27.540;2024-01-15T09:22:14;10.70;;;7.30;;
76608;SDS011;65928;53.936;27.540;2024-01-15T09:24:43;12.65;;;8.60;;
76608;SDS011;65928;53.936;27.540;2024-01-15T09:27:08;12.38;;;8.85;;
76608;SDS011;65928;53.936;27.540;2024-01-15T09:29:34;13.50;;;9.50;;
76608;SDS011;65928;53.936;27.540;2024-01-15T09:32:02;12.23;;;8.55;;
76608;SDS011;65928;53.936;27.540;2024-01-15T09:34:29;11.38;;;8.18;;
76608;SDS011;65928;53.936;27.540;2024-01-15T09:36:54;12.45;;;9.00;;
76608;SDS011;65928;53.936;27.540;2024-01-15T09:39:19;12.70;;;8.70;;
76608;SDS011;65928;53.936;27.540;2024-01-15T09:41:45;12.93;;;9.65;;
76608;SDS011;65928;53.936;27.540;2024-01-15T09:44:11;13.23;;;9.05;;
76608;SDS011;65928;53.936;27.540;2024-01-15T09:46:37;13.50;;;8.60;;
76608;SDS011;65928;53.936;27.540;2024-01-15T09:49:05;14.80;;;9.18;;
76608;SDS011;65928;53.936;27.540;2024-01-15T09:51:31;13.05;;;9.23;;
76608;SDS011;65928;53.936;27.540;2024-01-15T09:53:57;14.55;;;9.95;;
76608;SDS011;65928;53.936;27.540;2024-01-15T09:56:23;9.80;;;7.10;;
76608;SDS011;65928;53.936;27.540;2024-01-15T09:58:49;14.02;;;10.10;;
76608;SDS011;65928;53.936;27.540;2024-01-15T10:01:16;16.15;;;10.75;;
76608;SDS011;65928;53.936;27.540;2024-01-15T10:03:42;17.67;;;10.57;;
76608;SDS011;65928;53.936;27.540;2024-01-15T10:06:07;16.35;;;10.52;;
76608;SDS011;65928;53.936;27.540;2024-01-15T10:08:34;14.73;;;9.15;;
76608;SDS011;65928;53.936;27.540;2024-01-15T10:11:01;14.25;;;10.18;;
76608;SDS011;65928;53.936;27.540;2024-01-15T10:13:27;15.18;;;10.20;;
76608;SDS011;65928;53.936;27.540;2024-01-15T10:15:53;14.13;;;9.48;;
76608;SDS011;65928;53.936;27.540;2024-01-15T10:18:19;16.95;;;11.13;;
76608;SDS011;65928;53.936;27.540;2024-01-15T10:20:44;9.30;;;7.03;;
76608;SDS011;65928;53.936;27.540;2024-01-15T10:23:10;16.42;;;9.45;;
76608;SDS011;65928;53.936;27.540;2024-01-15T10:25:35;12.95;;;8.75;;
76608;SDS011;65928;53.936;27.540;2024-01-15T10:28:01;17.77;;;11.05;;
76608;SDS011;65928;53.936;27.540;2024-01-15T10:30:28;17.48;;;9.63;;
76608;SDS011;65928;53.936;27.540;2024-01-15T10:33:03;14.30;;;10.65;;
76608;SDS011;65928;53.936;27.540;2024-01-15T10:35:30;16.58;;;10.55;;
76608;SDS011;65928;53.936;27.540;2024-01-15T10:37:56;16.40;;;11.07;;
76608;SDS011;65928;53.936;27.540;2024-01-15T10:40:22;11.95;;;9.48;;
76608;SDS011;65928;53.936;27.540;2024-01-15T10:42:48;20.20;;;12.23;;
76608;SDS011;65928;53.936;27.540;2024-01-15T10:45:13;18.08;;;12.10;;
76608;SDS011;65928;53.936;27.540;2024-01-15T10:47:39;16.83;;;12.02;;
76608;SDS011;65928;53.936;27.540;2024-01-15T10:50:06;20.77;;;13.40;;
76608;SDS011;65928;53.936;27.540;2024-01-15T10:52:33;21.42;;;13.43;;
76608;SDS011;65928;53.936;27.540;2024-01-15T10:54:59;21.75;;;14.23;;
76608;SDS011;65928;53.936;27.540;2024-01-15T10:57:25;19.10;;;12.57;;
76608;SDS011;65928;53.936;27.540;2024-01-15T10:59:51;23.80;;;12.43;;
76608;SDS011;65928;53.936;27.540;2024-01-15T11:02:16;22.73;;;13.63;;
76608;SDS011;65928;53.936;27.540;2024-01-15T11:04:42;21.52;;;13.57;;
76608;SDS011;65928;53.936;27.540;2024-01-15T11:07:08;20.55;;;14.18;;
76608;SDS011;65928;53.936;27.540;2024-01-15T11:09:36;21.80;;;14.73;;
76608;SDS011;65928;53.936;27.540;2024-01-15T11:12:07;19.17;;;13.02;;
76608;SDS011;65928;53.936;27.540;2024-01-15T11:17:00;20.58;;;13.95;;
76608;SDS011;65928;53.936;27.540;2024-01-15T11:19:26;24.98;;;14.57;;
76608;SDS011;65928;53.936;27.540;2024-01-15T11:22:09;23.90;;;14.10;;
76608;SDS011;65928;53.936;27.540;2024-01-15T11:24:37;13.23;;;10.32;;
76608;SDS011;65928;53.936;27.540;2024-01-15T11:27:04;24.08;;;14.40;;
76608;SDS011;65928;53.936;27.540;2024-01-15T11:29:31;19.67;;;13.60;;
76608;SDS011;65928;53.936;27.540;2024-01-15T11:37:24;25.20;;;14.13;;
76608;SDS011;65928;53.936;27.540;2024-01-15T11:40:01;19.90;;;13.93;;
76608;SDS011;65928;53.936;27.540;2024-01-15T11:42:28;22.85;;;14.20;;
76608;SDS011;65928;53.936;27.540;2024-01-15T11:44:54;22.70;;;14.70;;
76608;SDS011;65928;53.936;27.540;2024-01-15T11:47:40;21.67;;;14.93;;
76608;SDS011;65928;53.936;27.540;2024-01-15T11:50:22;23.08;;;14.23;;
76608;SDS011;65928;53.936;27.540;2024-01-15T11:52:56;23.35;;;13.88;;
76608;SDS011;65928;53.936;27.540;2024-01-15T11:55:36;20.65;;;14.27;;
76608;SDS011;65928;53.936;27.540;2024-01-15T11:58:07;19.40;;;13.02;;
76608;SDS011;65928;53.936;27.540;2024-01-15T12:03:09;19.13;;;11.93;;
76608;SDS011;65928;53.936;27.540;2024-01-15T12:05:36;22.77;;;13.77;;
76608;SDS011;65928;53.936;27.540;2024-01-15T12:08:02;23.38;;;15.07;;
76608;SDS011;65928;53.936;27.540;2024-01-15T12:10:28;22.20;;;14.35;;
76608;SDS011;65928;53.936;27.540;2024-01-15T12:13:04;21.65;;;13.10;;
76608;SDS011;65928;53.936;27.540;2024-01-15T12:15:31;15.70;;;10.00;;
76608;SDS011;65928;53.936;27.540;2024-01-15T12:17:58;20.85;;;12.15;;
76608;SDS011;65928;53.936;27.540;2024-01-15T12:20:24;18.63;;;13.15;;
76608;SDS011;65928;53.936;27.540;2024-01-15T12:22:50;22.15;;;13.60;;
76608;SDS011;65928;53.936;27.540;2024-01-15T12:25:16;23.25;;;14.10;;
76608;SDS011;65928;53.936;27.540;2024-01-15T12:27:41;22.23;;;14.70;;
76608;SDS011;65928;53.936;27.540;2024-01-15T12:30:07;22.08;;;14.50;;
76608;SDS011;65928;53.936;27.540;2024-01-15T12:32:36;22.83;;;12.65;;
76608;SDS011;65928;53.936;27.540;2024-01-15T12:35:01;24.92;;;13.75;;
76608;SDS011;65928;53.936;27.540;2024-01-15T12:37:27;23.17;;;14.77;;
76608;SDS011;65928;53.936;27.540;2024-01-15T12:39:54;23.95;;;13.85;;
76608;SDS011;65928;53.936;27.540;2024-01-15T12:42:20;17.25;;;12.15;;
76608;SDS011;65928;53.936;27.540;2024-01-15T12:44:46;19.75;;;13.88;;
76608;SDS011;65928;53.936;27.540;2024-01-15T12:47:11;22.83;;;14.30;;
76608;SDS011;65928;53.936;27.540;2024-01-15T12:49:37;21.92;;;13.80;;
76608;SDS011;65928;53.936;27.540;2024-01-15T12:52:03;21.23;;;13.23;;
76608;SDS011;65928;53.936;27.540;2024-01-15T12:54:28;19.08;;;13.00;;
76608;SDS011;65928;53.936;27.540;2024-01-15T12:56:54;18.98;;;12.18;;
76608;SDS011;65928;53.936;27.540;2024-01-15T12:59:19;19.40;;;12.55;;
76608;SDS011;65928;53.936;27.540;2024-01-15T13:01:45;17.73;;;12.18;;
76608;SDS011;65928;53.936;27.540;2024-01-15T13:04:11;17.52;;;11.68;;
76608;SDS011;65928;53.936;27.540;2024-01-15T13:06:37;16.45;;;9.85;;
76608;SDS011;65928;53.936;27.540;2024-01-15T13:09:03;18.08;;;12.00;;
76608;SDS011;65928;53.936;27.540;2024-01-15T13:11:32;18.30;;;12.65;;
76608;SDS011;65928;53.936;27.540;2024-01-15T13:13:57;20.88;;;13.23;;
76608;SDS011;65928;53.936;27.540;2024-01-15T13:16:23;18.52;;;12.55;;
76608;SDS011;65928;53.936;27.540;2024-01-15T13:18:48;16.83;;;11.07;;
76608;SDS011;65928;53.936;27.540;2024-01-15T13:21:15;18.40;;;12.48;;
76608;SDS011;65928;53.936;27.540;2024-01-15T13:23:40;18.55;;;12.38;;
76608;SDS011;65928;53.936;27.540;2024-01-15T13:26:06;18.65;;;12.68;;
76608;SDS011;65928;53.936;27.540;2024-01-15T13:28:32;17.48;;;11.75;;
76608;SDS011;65928;53.936;27.540;2024-01-15T13:30:57;13.13;;;8.10;;
76608;SDS011;65928;53.936;27.540;2024-01-15T13:33:23;15.70;;;10.50;;
76608;SDS011;65928;53.936;27.540;2024-01-15T13:35:48;14.00;;;10.30;;
76608;SDS011;65928;53.936;27.540;2024-01-15T13:38:16;16.52;;;12.35;;
76608;SDS011;65928;53.936;27.540;2024-01-15T13:40:42;11.82;;;8.98;;
76608;SDS011;65928;53.936;27.540;2024-01-15T13:43:10;13.25;;;9.52;;
76608;SDS011;65928;53.936;27.540;2024-01-15T13:45:35;17.67;;;12.05;;
76608;SDS011;65928;53.936;27.540;2024-01-15T13:48:02;15.48;;;10.07;;
76608;SDS011;65928;53.936;27.540;2024-01-15T13:50:30;15.43;;;10.38;;
76608;SDS011;65928;53.936;27.540;2024-01-15T13:52:56;16.88;;;12.02;;
76608;SDS011;65928;53.936;27.540;2024-01-15T13:55:22;17.50;;;12.05;;
76608;SDS011;65928;53.936;27.540;2024-01-15T13:57:47;18.65;;;11.13;;
76608;SDS011;65928;53.936;27.540;2024-01-15T14:00:12;18.70;;;11.55;;
76608;SDS011;65928;53.936;27.540;2024-01-15T14:02:43;13.75;;;10.15;;
76608;SDS011;65928;53.936;27.540;2024-01-15T14:05:09;20.45;;;12.82;;
76608;SDS011;65928;53.936;27.540;2024-01-15T14:07:34;16.25;;;11.82;;
76608;SDS011;65928;53.936;27.540;2024-01-15T14:09:59;18.58;;;12.73;;
76608;SDS011;65928;53.936;27.540;2024-01-15T14:12:25;18.30;;;12.48;;
76608;SDS011;65928;53.936;27.540;2024-01-15T14:14:51;17.10;;;12.50;;
76608;SDS011;65928;53.936;27.540;2024-01-15T14:17:17;18.63;;;12.48;;
76608;SDS011;65928;53.936;27.540;2024-01-15T14:19:42;17.52;;;12.45;;
76608;SDS011;65928;53.936;27.540;2024-01-15T14:22:08;17.70;;;11.57;;
76608;SDS011;65928;53.936;27.540;2024-01-15T14:24:33;19.08;;;12.50;;
76608;SDS011;65928;53.936;27.540;2024-01-15T14:26:59;19.83;;;11.90;;